Time;durP1;ratioP1;P1;durP2;ratioP2;P2;SDS_P1;SDS_P2;PMS_P1;PMS_P2;Temp;Humidity;BMP_temperature;BMP_pressure;BME280_temperature;BME280_humidity;BME280_pressure;Samples;Min_cycle;Max_cycle;Signal;HPM_P1;HPM_P2
2022/03/31 00:01:08;;;;;;;31.65;22.63;;;;;;;7.23;75.74;97186.78;2622806;54;20062;-64
2022/03/31 00:03:40;;;;;;;34.08;23.35;;;;;;;7.21;76.25;97197.50;2622629;54;20498;-63
2022/03/31 00:06:10;;;;;;;36.80;24.02;;;;;;;7.25;76.52;97198.69;2622547;54;20145;-63
2022/03/31 00:08:40;;;;;;;32.30;22.60;;;;;;;7.25;76.29;97190.81;2622925;54;20026;-62
2022/03/31 00:11:09;;;;;;;34.60;21.92;;;;;;;7.24;76.05;97197.09;2623857;39;20181;-60
2022/03/31 00:13:41;;;;;;;29.27;20.73;;;;;;;7.24;76.27;97202.34;2624176;39;20419;-61
2022/03/31 00:16:10;;;;;;;27.75;19.65;;;;;;;7.24;76.07;97191.03;2623075;54;20045;-63
2022/03/31 00:18:43;;;;;;;30.10;20.83;;;;;;;7.20;76.02;97194.06;2622392;54;20027;-62
2022/03/31 00:21:12;;;;;;;29.67;21.08;;;;;;;7.18;75.94;97187.41;2622000;47;20031;-63
2022/03/31 00:23:42;;;;;;;31.35;21.20;;;;;;;7.17;75.58;97185.78;2623126;39;20426;-64
2022/03/31 00:26:13;;;;;;;32.38;22.35;;;;;;;7.10;75.24;97179.75;2622924;39;20438;-64
2022/03/31 00:28:43;;;;;;;32.92;21.95;;;;;;;7.03;75.58;97171.94;2623231;54;20094;-64
2022/03/31 00:31:13;;;;;;;31.88;22.58;;;;;;;7.05;75.52;97176.97;2624714;39;20477;-63
2022/03/31 00:33:45;;;;;;;30.55;20.75;;;;;;;7.03;75.72;97168.50;2623958;47;20022;-64
2022/03/31 00:36:15;;;;;;;27.98;19.67;;;;;;;6.99;75.19;97170.72;2623877;54;20034;-65
2022/03/31 00:39:28;;;;;;;29.83;21.55;;;;;;;6.99;75.60;97168.09;2623595;47;20030;-64
2022/03/31 00:41:37;;;;;;;32.15;22.40;;;;;;;6.96;75.35;97163.25;2623826;54;20030;-64
2022/03/31 00:44:08;;;;;;;32.17;22.55;;;;;;;6.87;75.04;97169.78;2622994;54;20054;-63
2022/03/31 00:46:49;;;;;;;31.02;22.13;;;;;;;6.73;75.43;97165.56;2621616;54;20065;-63
2022/03/31 00:49:22;;;;;;;31.23;21.30;;;;;;;6.69;76.05;97165.19;2621732;54;20030;-64
2022/03/31 00:51:54;;;;;;;35.78;22.98;;;;;;;6.68;75.61;97171.44;2623447;54;20038;-63
2022/03/31 00:54:26;;;;;;;34.42;22.52;;;;;;;6.58;75.45;97173.72;2622427;54;20565;-63
2022/03/31 00:56:56;;;;;;;32.38;22.98;;;;;;;6.46;75.44;97163.06;2622752;39;20438;-64
2022/03/31 00:59:27;;;;;;;31.50;22.75;;;;;;;6.39;75.97;97164.88;2622391;54;20621;-63
2022/03/31 01:01:57;;;;;;;38.78;23.20;;;;;;;6.30;76.40;97161.66;2621951;54;20545;-64
2022/03/31 01:04:30;;;;;;;33.42;21.30;;;;;;;6.26;76.73;97157.84;2621517;54;20157;-61
2022/03/31 01:06:59;;;;;;;34.92;22.80;;;;;;;6.37;76.56;97159.84;2622082;54;20037;-63
2022/03/31 01:09:31;;;;;;;33.85;23.23;;;;;;;6.36;76.43;97155.59;2622567;54;20034;-63
2022/03/31 01:12:02;;;;;;;36.28;24.20;;;;;;;6.30;76.36;97153.00;2622794;54;20045;-64
2022/03/31 01:14:32;;;;;;;37.35;24.45;;;;;;;6.17;76.23;97141.53;2622030;54;20039;-62
2022/03/31 01:17:02;;;;;;;36.08;23.25;;;;;;;6.08;76.86;97141.91;2621968;54;20038;-61
2022/03/31 01:19:34;;;;;;;36.47;24.40;;;;;;;6.02;77.16;97137.50;2622441;54;20779;-63
2022/03/31 01:22:05;;;;;;;36.03;24.38;;;;;;;6.03;77.02;97139.09;2622194;47;20031;-61
2022/03/31 01:24:38;;;;;;;33.03;22.05;;;;;;;6.10;77.46;97139.91;2621923;54;20039;-62
2022/03/31 01:27:11;;;;;;;37.72;25.67;;;;;;;6.16;77.36;97129.41;2622318;54;20037;-63
2022/03/31 01:29:40;;;;;;;39.95;24.55;;;;;;;6.18;77.17;97137.06;2623008;54;20050;-61
2022/03/31 01:32:11;;;;;;;39.63;26.25;;;;;;;6.18;77.07;97132.63;2622880;54;20034;-64
2022/03/31 01:34:41;;;;;;;40.85;25.65;;;;;;;6.08;77.06;97126.19;2622926;54;20042;-61
2022/03/31 01:37:12;;;;;;;39.00;25.63;;;;;;;6.13;76.99;97129.00;2623630;54;20038;-63
2022/03/31 01:39:44;;;;;;;38.17;25.33;;;;;;;6.21;77.52;97128.81;2624237;54;20037;-62
2022/03/31 01:42:14;;;;;;;38.60;25.80;;;;;;;6.27;76.81;97133.22;2624454;54;20027;-61
2022/03/31 01:44:44;;;;;;;40.08;26.92;;;;;;;6.29;76.97;97123.31;2624308;47;20026;-62
2022/03/31 01:47:13;;;;;;;38.40;24.77;;;;;;;6.25;76.25;97132.63;2624812;54;20034;-62
2022/03/31 01:49:43;;;;;;;38.85;25.80;;;;;;;6.25;76.60;97127.38;2624142;54;20030;-63
2022/03/31 01:52:13;;;;;;;39.45;25.15;;;;;;;6.29;76.35;97127.78;2623888;54;20066;-62
2022/03/31 01:54:45;;;;;;;41.22;27.52;;;;;;;6.26;76.62;97126.34;2624250;54;20030;-64
2022/03/31 01:57:15;;;;;;;40.17;25.92;;;;;;;6.25;76.72;97124.75;2624244;54;20034;-63
2022/03/31 01:59:44;;;;;;;41.95;25.02;;;;;;;6.27;76.60;97116.66;2624281;54;20138;-63
2022/03/31 02:02:16;;;;;;;40.05;26.55;;;;;;;6.33;76.92;97121.09;2623897;54;20038;-63
2022/03/31 02:04:46;;;;;;;34.40;22.60;;;;;;;6.25;76.63;97122.13;2623250;54;20045;-64
2022/03/31 02:07:16;;;;;;;37.22;23.52;;;;;;;6.32;76.44;97107.16;2623905;54;20042;-63
2022/03/31 02:09:48;;;;;;;32.55;22.17;;;;;;;6.39;76.13;97110.56;2623443;54;20035;-64
2022/03/31 02:12:18;;;;;;;35.40;23.50;;;;;;;6.45;76.44;97107.13;2623146;54;20038;-63
2022/03/31 02:14:47;;;;;;;41.00;26.20;;;;;;;6.50;75.88;97109.13;2622988;39;20421;-64
2022/03/31 02:17:17;;;;;;;34.78;23.10;;;;;;;6.50;76.11;97106.50;2621931;54;20027;-64
2022/03/31 02:19:46;;;;;;;35.40;24.25;;;;;;;6.52;75.50;97101.03;2623023;54;20035;-64
2022/03/31 02:22:17;;;;;;;39.45;25.75;;;;;;;6.43;75.46;97096.00;2622761;54;20038;-63
2022/03/31 02:24:49;;;;;;;37.35;25.33;;;;;;;6.39;75.74;97100.06;2622619;54;20030;-64
2022/03/31 02:27:19;;;;;;;38.10;23.77;;;;;;;6.37;75.64;97091.59;2622614;54;20031;-62
2022/03/31 02:29:49;;;;;;;35.50;23.52;;;;;;;6.37;76.01;97091.59;2623336;54;20041;-61
2022/03/31 02:32:18;;;;;;;36.50;24.58;;;;;;;6.40;76.28;97087.75;2623952;54;20034;-62
2022/03/31 02:34:48;;;;;;;39.53;26.10;;;;;;;6.48;76.04;97091.97;2623253;47;20019;-64
2022/03/31 02:37:17;;;;;;;35.38;25.13;;;;;;;6.41;75.33;97082.31;2623427;54;20031;-61
2022/03/31 02:39:50;;;;;;;34.92;24.40;;;;;;;6.39;75.76;97083.50;2623797;54;20027;-61
2022/03/31 02:42:19;;;;;;;38.97;26.02;;;;;;;6.37;75.60;97077.69;2623554;39;20434;-62
2022/03/31 02:44:49;;;;;;;36.05;25.25;;;;;;;6.36;75.58;97078.69;2623271;54;20038;-62
2022/03/31 02:47:19;;;;;;;40.88;26.00;;;;;;;6.38;76.09;97064.34;2623609;54;20671;-61
2022/03/31 02:49:48;;;;;;;38.97;25.27;;;;;;;6.41;75.90;97065.75;2625398;39;20445;-64
2022/03/31 02:52:18;;;;;;;37.72;24.35;;;;;;;6.47;76.43;97049.16;2622646;47;20031;-61
2022/03/31 02:57:32;;;;;;;43.97;27.75;;;;;;;6.38;75.23;97045.16;2624096;39;20435;-63
2022/03/31 03:00:02;;;;;;;40.40;27.17;;;;;;;6.30;75.43;97045.41;2622747;54;20026;-64
2022/03/31 03:02:32;;;;;;;51.17;31.83;;;;;;;6.25;76.13;97037.34;2621435;54;20045;-65
2022/03/31 03:05:01;;;;;;;38.13;25.88;;;;;;;6.17;76.15;97041.81;2621678;54;20031;-62
2022/03/31 03:07:31;;;;;;;40.03;25.85;;;;;;;6.11;76.36;97042.63;2622047;54;20041;-63
2022/03/31 03:10:03;;;;;;;36.85;24.80;;;;;;;6.12;76.76;97033.75;2622930;54;20026;-61
2022/03/31 03:12:33;;;;;;;38.42;26.35;;;;;;;6.19;76.76;97031.09;2622138;47;20037;-65
2022/03/31 03:15:03;;;;;;;41.13;25.90;;;;;;;6.15;76.27;97028.09;2622607;54;20550;-62
2022/03/31 03:17:32;;;;;;;37.20;25.98;;;;;;;6.11;76.36;97021.63;2623431;54;20030;-61
2022/03/31 03:20:02;;;;;;;40.55;26.40;;;;;;;6.10;76.45;97022.66;2619105;54;20038;-62
2022/03/31 03:22:32;;;;;;;38.60;26.23;;;;;;;6.08;76.70;97013.38;2618671;54;20039;-62
2022/03/31 03:25:04;;;;;;;39.78;26.42;;;;;;;6.11;76.84;97008.53;2621090;47;20179;-61
2022/03/31 03:27:34;;;;;;;43.60;26.98;;;;;;;6.08;76.50;97014.22;2623242;54;20042;-62
2022/03/31 03:30:03;;;;;;;38.35;26.08;;;;;;;6.04;77.05;97022.66;2622715;54;20022;-62
2022/03/31 03:32:33;;;;;;;40.17;26.33;;;;;;;6.12;77.16;97014.56;2622847;54;20027;-62
2022/03/31 03:35:03;;;;;;;42.45;27.73;;;;;;;6.12;76.63;97011.94;2623134;54;20030;-62
2022/03/31 03:37:32;;;;;;;38.65;26.25;;;;;;;6.07;76.86;97009.94;2622868;54;20038;-63
2022/03/31 03:40:06;;;;;;;38.30;26.15;;;;;;;6.04;76.76;97010.38;2623109;47;20046;-63
2022/03/31 03:42:38;;;;;;;34.92;24.52;;;;;;;5.98;76.85;97008.56;2623499;54;20049;-61
2022/03/31 03:45:10;;;;;;;37.33;24.67;;;;;;;6.00;77.08;97006.56;2623040;54;20061;-62
2022/03/31 03:47:40;;;;;;;43.33;28.73;;;;;;;6.00;77.20;97009.19;2623258;54;20030;-60
2022/03/31 03:50:11;;;;;;;45.92;30.02;;;;;;;5.98;77.21;97013.81;2623158;54;20033;-61
2022/03/31 03:52:40;;;;;;;43.88;29.35;;;;;;;5.97;77.54;97012.22;2623528;54;20038;-61
2022/03/31 03:55:13;;;;;;;44.05;30.63;;;;;;;6.01;77.17;97017.84;2622847;54;20048;-63
2022/03/31 03:57:43;;;;;;;47.67;29.83;;;;;;;6.01;77.55;97013.41;2624298;39;20423;-61
2022/03/31 04:00:14;;;;;;;45.75;28.63;;;;;;;6.11;77.99;97019.03;2622608;54;20031;-63
2022/03/31 04:02:43;;;;;;;48.05;29.98;;;;;;;6.12;77.92;97004.91;2622293;54;20035;-60
2022/03/31 04:05:13;;;;;;;47.58;31.13;;;;;;;6.13;77.08;97003.09;2622404;47;20031;-63
2022/03/31 04:07:43;;;;;;;53.40;33.72;;;;;;;6.13;77.39;97001.25;2622660;39;20434;-63
2022/03/31 04:10:15;;;;;;;50.33;32.22;;;;;;;6.16;77.15;96992.97;2623006;54;20026;-64
2022/03/31 04:12:45;;;;;;;51.55;33.67;;;;;;;6.19;77.45;96997.78;2622918;54;20039;-62
2022/03/31 04:15:16;;;;;;;53.25;33.58;;;;;;;6.22;77.20;96995.78;2618144;54;20802;-63
2022/03/31 04:17:46;;;;;;;53.33;34.40;;;;;;;6.17;77.50;96997.22;2618486;54;20041;-63
2022/03/31 04:20:16;;;;;;;51.38;33.33;;;;;;;6.22;77.68;96993.97;2619123;54;20049;-63
2022/03/31 04:22:46;;;;;;;53.58;34.97;;;;;;;6.25;77.79;97004.03;2620394;54;20573;-63
2022/03/31 04:25:18;;;;;;;56.40;35.58;;;;;;;6.26;77.44;97002.22;2619187;54;20041;-64
2022/03/31 04:27:47;;;;;;;56.65;36.03;;;;;;;6.25;77.70;96996.16;2618297;54;20127;-64
2022/03/31 04:30:20;;;;;;;56.03;35.15;;;;;;;6.20;77.26;97003.84;2618154;39;20410;-63
2022/03/31 04:32:51;;;;;;;53.13;33.00;;;;;;;6.19;77.37;97002.25;2618270;54;20057;-63
2022/03/31 04:42:20;;;;;;;52.05;31.85;;;;;;;6.07;77.52;96988.97;2618239;54;20561;-64
2022/03/31 04:44:50;;;;;;;49.00;30.73;;;;;;;6.00;77.74;96990.00;2618309;54;20030;-64
2022/03/31 04:47:19;;;;;;;47.40;31.40;;;;;;;6.02;77.85;96988.00;2618366;54;20079;-64
2022/03/31 04:49:49;;;;;;;46.90;31.08;;;;;;;6.02;77.75;96986.16;2618727;54;20018;-64
2022/03/31 04:52:18;;;;;;;51.15;31.90;;;;;;;6.04;77.59;96991.19;2618715;54;20086;-62
2022/03/31 04:54:48;;;;;;;49.30;32.30;;;;;;;6.03;77.37;96992.22;2618871;39;20707;-62
2022/03/31 04:57:21;;;;;;;54.05;33.65;;;;;;;5.90;77.75;97000.91;2618466;46;20167;-63
2022/03/31 04:59:51;;;;;;;51.10;33.17;;;;;;;5.84;77.22;96999.94;2618727;54;20030;-64
2022/03/31 05:02:20;;;;;;;49.58;32.95;;;;;;;5.83;77.81;96998.28;2617533;54;20035;-63
2022/03/31 05:04:50;;;;;;;50.53;31.50;;;;;;;5.83;77.65;97000.91;2618599;39;20437;-63
2022/03/31 05:07:20;;;;;;;51.78;32.53;;;;;;;5.83;77.44;97003.53;2617750;54;20037;-64
2022/03/31 05:09:49;;;;;;;50.85;32.03;;;;;;;5.81;77.84;96995.09;2618190;54;20034;-63
2022/03/31 05:12:21;;;;;;;52.15;32.65;;;;;;;5.82;77.37;97001.13;2618275;54;20542;-64
2022/03/31 05:14:51;;;;;;;53.15;33.90;;;;;;;5.76;77.66;97002.78;2617848;54;20034;-64
2022/03/31 05:17:21;;;;;;;50.60;32.60;;;;;;;5.83;77.60;97000.91;2617999;54;20026;-64
2022/03/31 05:19:50;;;;;;;49.30;32.83;;;;;;;5.84;77.76;96993.88;2618115;54;20026;-64
2022/03/31 05:22:20;;;;;;;55.38;34.47;;;;;;;5.85;77.95;96993.66;2617977;54;20026;-64
2022/03/31 05:24:50;;;;;;;54.67;35.13;;;;;;;5.85;77.41;96995.47;2618110;54;20569;-63
2022/03/31 05:27:22;;;;;;;60.03;37.00;;;;;;;5.92;77.67;96996.31;2618025;54;20604;-64
2022/03/31 05:29:52;;;;;;;52.92;33.55;;;;;;;5.90;77.38;96993.84;2618145;54;20031;-63
2022/03/31 05:32:22;;;;;;;54.17;35.78;;;;;;;5.92;77.22;96989.25;2618101;54;20573;-63
2022/03/31 05:34:51;;;;;;;53.95;35.67;;;;;;;5.98;77.06;96992.03;2618133;54;20058;-63
2022/03/31 05:37:21;;;;;;;51.75;34.00;;;;;;;5.97;76.98;96988.63;2617998;54;20577;-63
2022/03/31 05:39:50;;;;;;;55.00;34.95;;;;;;;5.92;76.93;96994.47;2618320;54;20033;-63
2022/03/31 05:42:22;;;;;;;55.58;35.05;;;;;;;5.93;76.89;96990.84;2618101;54;20046;-64
2022/03/31 05:44:52;;;;;;;51.35;33.63;;;;;;;6.01;77.26;96986.38;2618119;54;20558;-63
2022/03/31 05:47:22;;;;;;;50.05;32.45;;;;;;;6.16;77.36;96979.03;2617742;54;20034;-64
2022/03/31 05:49:51;;;;;;;48.17;33.85;;;;;;;6.28;76.74;96987.06;2618134;54;20566;-63
2022/03/31 05:52:21;;;;;;;47.13;31.73;;;;;;;6.30;76.11;96982.41;2617650;47;20023;-63
2022/03/31 05:54:52;;;;;;;47.38;31.40;;;;;;;6.27;75.80;96983.63;2618148;54;20027;-64
2022/03/31 05:57:24;;;;;;;49.95;32.78;;;;;;;6.29;75.73;96988.69;2617346;54;20027;-63
2022/03/31 05:59:54;;;;;;;47.55;32.05;;;;;;;6.27;75.72;96988.88;2617938;54;20053;-63
2022/03/31 06:02:23;;;;;;;51.90;32.53;;;;;;;6.27;75.20;96985.44;2617880;54;20031;-63
2022/03/31 06:05:13;;;;;;;46.75;30.40;;;;;;;6.26;75.48;96989.91;2617870;54;20054;-63
2022/03/31 06:07:43;;;;;;;48.60;32.90;;;;;;;6.31;75.68;96979.56;2617650;54;20045;-63
2022/03/31 06:10:13;;;;;;;49.42;33.53;;;;;;;6.37;75.42;96986.63;2617966;54;20035;-63
2022/03/31 06:12:45;;;;;;;50.28;33.78;;;;;;;6.39;75.43;96981.94;2618011;54;20046;-63
2022/03/31 06:15:15;;;;;;;48.97;33.30;;;;;;;6.38;75.03;96990.06;2617982;54;20030;-63
2022/03/31 06:17:46;;;;;;;48.97;32.63;;;;;;;6.41;74.89;96987.81;2618143;54;20098;-63
2022/03/31 06:20:17;;;;;;;53.33;33.97;;;;;;;6.45;74.93;96986.38;2618757;54;20018;-64
2022/03/31 06:22:46;;;;;;;50.92;34.33;;;;;;;6.40;74.15;96982.75;2619272;39;20435;-62
2022/03/31 06:25:17;;;;;;;51.97;31.83;;;;;;;6.29;74.12;96997.38;2618688;54;20026;-63
2022/03/31 06:27:50;;;;;;;49.70;32.22;;;;;;;6.20;74.44;96994.19;2618868;54;20027;-63
2022/03/31 06:30:19;;;;;;;49.22;31.90;;;;;;;6.05;74.40;96988.38;2618399;47;20041;-64
2022/03/31 06:32:49;;;;;;;49.67;32.00;;;;;;;5.96;74.72;96987.00;2618714;54;20049;-63
2022/03/31 06:35:19;;;;;;;52.25;33.42;;;;;;;5.93;75.33;96985.59;2618702;54;20070;-63
2022/03/31 06:37:51;;;;;;;52.80;34.03;;;;;;;5.90;75.31;96982.53;2618007;54;20033;-63
2022/03/31 06:40:21;;;;;;;51.65;33.58;;;;;;;5.92;75.32;96989.25;2618938;54;20030;-63
2022/03/31 06:42:53;;;;;;;52.88;34.22;;;;;;;6.05;75.13;96988.38;2618863;54;20030;-62
2022/03/31 06:45:23;;;;;;;52.30;32.42;;;;;;;6.05;74.68;96983.13;2619011;54;20025;-63
2022/03/31 06:48:01;;;;;;;54.58;32.90;;;;;;;6.07;75.22;96977.66;2618674;54;20065;-65
2022/03/31 06:50:33;;;;;;;50.13;32.97;;;;;;;6.12;75.11;96981.28;2618902;54;20033;-63
2022/03/31 06:53:03;;;;;;;47.80;31.83;;;;;;;6.13;74.67;96971.59;2618685;54;20033;-64
2022/03/31 06:55:33;;;;;;;47.33;31.58;;;;;;;6.14;75.21;96974.00;2618564;54;20026;-64
2022/03/31 06:58:06;;;;;;;46.45;30.10;;;;;;;6.22;75.42;96978.22;2617738;47;20033;-64
2022/03/31 07:00:35;;;;;;;44.50;28.90;;;;;;;6.38;75.02;96982.19;2618553;54;20022;-64
2022/03/31 07:03:05;;;;;;;47.55;32.13;;;;;;;6.42;74.41;96981.53;2618867;54;20059;-62
2022/03/31 07:05:38;;;;;;;42.63;28.98;;;;;;;6.39;74.20;96981.16;2618853;54;20558;-62
2022/03/31 07:08:08;;;;;;;48.10;31.15;;;;;;;6.37;74.53;96977.94;2618085;54;20031;-62
2022/03/31 07:10:37;;;;;;;44.00;30.02;;;;;;;6.29;73.99;96976.38;2619083;54;20556;-63
2022/03/31 07:13:10;;;;;;;47.10;30.25;;;;;;;6.20;73.88;96981.06;2618826;54;20035;-62
2022/03/31 07:15:40;;;;;;;48.78;30.38;;;;;;;6.20;74.53;96993.34;2618729;54;20015;-62
2022/03/31 07:18:10;;;;;;;44.08;28.60;;;;;;;6.19;74.47;96981.25;2618853;54;20029;-62
2022/03/31 07:20:40;;;;;;;47.08;30.08;;;;;;;6.24;74.50;96978.00;2618617;54;20026;-63
2022/03/31 07:23:09;;;;;;;47.13;30.58;;;;;;;6.02;74.87;96980.13;2619149;54;20038;-63
2022/03/31 07:25:40;;;;;;;44.55;29.23;;;;;;;6.14;74.56;96983.69;2618670;54;20066;-63
2022/03/31 07:28:12;;;;;;;45.67;29.23;;;;;;;6.15;74.44;96980.84;2618665;54;20550;-63
2022/03/31 07:30:42;;;;;;;49.72;30.13;;;;;;;6.15;74.53;96975.59;2618341;54;20534;-64
2022/03/31 07:33:12;;;;;;;55.33;32.50;;;;;;;6.10;74.35;96978.06;2618025;54;20026;-64
2022/03/31 07:35:47;;;;;;;49.85;30.63;;;;;;;6.06;74.13;96982.13;2618444;54;20661;-64
2022/03/31 07:38:18;;;;;;;48.13;30.63;;;;;;;5.98;74.07;96976.31;2618224;54;20045;-65
2022/03/31 07:40:49;;;;;;;46.47;31.02;;;;;;;5.97;74.16;96975.50;2618397;54;20043;-63
2022/03/31 07:43:21;;;;;;;45.85;28.60;;;;;;;6.07;74.71;96980.28;2618406;54;20029;-63
2022/03/31 07:45:51;;;;;;;47.42;28.65;;;;;;;6.07;74.23;96975.84;2618461;54;20023;-63
2022/03/31 07:48:20;;;;;;;47.28;29.35;;;;;;;6.00;73.77;96984.75;2618160;54;20053;-63
2022/03/31 07:50:50;;;;;;;47.13;28.95;;;;;;;5.92;74.43;96985.81;2618441;54;20642;-63
2022/03/31 07:53:20;;;;;;;48.65;27.77;;;;;;;5.91;74.00;96990.19;2618387;54;20069;-64
2022/03/31 07:55:50;;;;;;;52.58;30.73;;;;;;;5.85;74.35;96985.78;2617894;47;20621;-62
2022/03/31 07:58:22;;;;;;;46.75;28.92;;;;;;;5.84;74.56;96988.63;2618460;54;20854;-62
2022/03/31 08:00:53;;;;;;;47.10;29.15;;;;;;;5.89;74.42;96988.81;2618290;54;20042;-62
2022/03/31 08:03:23;;;;;;;43.58;27.83;;;;;;;5.95;74.49;96982.75;2618629;54;20027;-63
2022/03/31 08:05:54;;;;;;;46.28;27.55;;;;;;;6.02;73.96;96993.22;2618375;54;20564;-63
2022/03/31 08:08:24;;;;;;;37.47;22.67;;;;;;;6.03;73.98;96986.97;2618891;54;20589;-63
2022/03/31 08:10:53;;;;;;;38.58;25.65;;;;;;;5.92;73.94;96978.75;2626103;54;20034;-64
2022/03/31 08:13:31;;;;;;;42.28;26.95;;;;;;;6.01;74.62;96983.75;2627321;54;20027;-64
2022/03/31 08:16:00;;;;;;;40.35;27.35;;;;;;;6.08;74.54;96974.03;2626933;54;20038;-63
2022/03/31 08:18:33;;;;;;;43.22;27.50;;;;;;;6.15;73.54;96980.06;2627173;54;20058;-63
2022/03/31 08:21:03;;;;;;;42.40;27.35;;;;;;;6.12;73.52;96975.22;2627328;54;20042;-62
2022/03/31 08:23:33;;;;;;;38.88;26.25;;;;;;;6.04;73.67;96968.41;2623592;54;20039;-62
2022/03/31 08:26:02;;;;;;;42.63;26.42;;;;;;;6.11;73.96;96978.88;2622812;54;20042;-63
2022/03/31 08:28:36;;;;;;;41.97;27.02;;;;;;;6.19;74.28;96984.69;2620461;39;20527;-64
2022/03/31 08:31:06;;;;;;;34.80;23.65;;;;;;;6.20;74.01;96982.84;2621231;54;20026;-64
2022/03/31 08:33:35;;;;;;;39.30;25.60;;;;;;;6.30;74.01;96985.84;2621318;46;20522;-64
2022/03/31 08:36:06;;;;;;;38.58;25.08;;;;;;;6.18;73.37;96984.91;2622821;54;20038;-64
2022/03/31 08:38:35;;;;;;;37.03;25.02;;;;;;;6.12;73.48;96989.16;2622157;54;20038;-66
2022/03/31 08:41:05;;;;;;;34.38;22.85;;;;;;;6.01;73.43;96989.81;2620481;39;20441;-62
2022/03/31 08:43:39;;;;;;;36.70;23.92;;;;;;;5.72;73.41;96991.88;2619177;54;20065;-63
2022/03/31 08:46:11;;;;;;;37.85;23.45;;;;;;;5.88;73.09;96997.69;2619653;39;20413;-64
2022/03/31 08:48:40;;;;;;;38.08;24.77;;;;;;;5.91;73.55;97000.69;2618097;54;20034;-65
2022/03/31 08:51:11;;;;;;;39.08;24.90;;;;;;;5.87;73.22;96993.44;2618678;54;20038;-63
2022/03/31 08:53:41;;;;;;;38.95;25.38;;;;;;;5.86;73.39;96997.88;2618348;54;20031;-64
2022/03/31 08:56:12;;;;;;;37.58;25.05;;;;;;;5.80;73.35;96990.84;2618333;54;20053;-65
2022/03/31 08:58:45;;;;;;;37.92;25.50;;;;;;;6.12;73.39;96983.91;2618293;54;20038;-66
2022/03/31 09:01:16;;;;;;;40.42;24.65;;;;;;;6.44;71.50;96974.25;2618220;54;20031;-63
2022/03/31 09:03:46;;;;;;;34.20;22.90;;;;;;;6.52;71.04;96975.81;2618712;39;20419;-64
2022/03/31 09:06:36;;;;;;;35.20;22.58;;;;;;;6.70;70.56;96978.56;2618755;39;20592;-63
2022/03/31 09:09:06;;;;;;;33.10;22.17;;;;;;;6.82;70.54;96977.88;2617927;54;20034;-65
2022/03/31 09:11:38;;;;;;;30.33;21.75;;;;;;;6.91;70.50;96979.22;2618177;31;20523;-64
2022/03/31 09:14:31;;;;;;;35.60;24.13;;;;;;;6.98;69.97;96976.53;2618087;54;20026;-66
2022/03/31 09:17:12;;;;;;;29.63;21.38;;;;;;;7.05;69.46;96985.16;2617853;54;20073;-63
2022/03/31 09:19:43;;;;;;;36.03;23.63;;;;;;;7.10;69.69;96991.41;2618154;54;20039;-63
2022/03/31 09:22:13;;;;;;;35.75;25.40;;;;;;;7.19;69.91;96984.06;2618088;54;20026;-64
2022/03/31 09:24:43;;;;;;;33.30;23.63;;;;;;;7.21;68.22;96984.63;2618369;54;20022;-65
2022/03/31 09:27:12;;;;;;;32.22;22.80;;;;;;;7.19;68.25;96987.47;2618014;54;20065;-64
2022/03/31 09:29:44;;;;;;;34.88;20.80;;;;;;;7.06;68.57;96976.25;2622571;54;20168;-63
2022/03/31 09:32:15;;;;;;;34.13;24.08;;;;;;;7.09;68.51;96975.84;2625878;54;20038;-64
2022/03/31 09:34:47;;;;;;;34.40;24.13;;;;;;;7.16;67.95;96972.13;2626828;54;20039;-64
2022/03/31 09:37:17;;;;;;;34.00;24.33;;;;;;;7.18;68.55;96975.38;2627177;54;20038;-64
2022/03/31 09:39:57;;;;;;;37.17;25.33;;;;;;;7.21;68.24;96984.63;2628647;54;20038;-63
2022/03/31 09:42:26;;;;;;;39.22;25.17;;;;;;;7.26;68.35;96987.41;2627183;54;20027;-64
2022/03/31 09:45:03;;;;;;;35.13;24.08;;;;;;;7.32;67.69;96983.94;2627167;47;20025;-65
2022/03/31 09:47:33;;;;;;;31.27;22.63;;;;;;;7.30;67.51;96982.53;2627177;54;20029;-63
2022/03/31 09:50:02;;;;;;;33.47;23.60;;;;;;;7.28;67.58;96990.63;2628455;54;20062;-63
2022/03/31 09:52:32;;;;;;;34.78;23.35;;;;;;;7.28;67.34;96980.13;2628522;54;20029;-63
2022/03/31 09:55:04;;;;;;;36.60;23.83;;;;;;;7.30;67.85;96972.81;2630097;54;20014;-63
2022/03/31 09:57:35;;;;;;;38.75;24.83;;;;;;;7.32;67.71;96973.41;2629333;54;20042;-63
2022/03/31 10:00:10;;;;;;;39.55;27.00;;;;;;;7.28;67.46;96974.06;2627085;47;20062;-64
2022/03/31 10:02:42;;;;;;;39.60;26.05;;;;;;;7.24;67.90;96978.16;2628428;54;20022;-65
2022/03/31 10:05:35;;;;;;;35.13;23.77;;;;;;;7.18;67.55;96979.78;2625246;47;20019;-64
2022/03/31 10:08:08;;;;;;;40.35;26.92;;;;;;;6.95;68.46;96972.50;2628037;54;20030;-65
2022/03/31 10:10:38;;;;;;;38.72;25.38;;;;;;;7.01;68.37;96974.28;2629810;54;20034;-65
2022/03/31 10:13:17;;;;;;;36.10;23.55;;;;;;;7.06;67.74;96971.81;2628399;54;20049;-65
2022/03/31 10:15:57;;;;;;;33.05;23.50;;;;;;;6.98;67.98;96971.25;2623609;54;20042;-64
2022/03/31 10:18:28;;;;;;;37.25;25.15;;;;;;;7.04;68.44;96973.06;2621670;54;20018;-63
2022/03/31 10:20:58;;;;;;;36.42;24.15;;;;;;;7.07;68.10;96977.88;2622852;54;20041;-65
2022/03/31 10:26:22;;;;;;;41.60;27.45;;;;;;;7.00;68.30;96970.03;2624419;54;20038;-64
2022/03/31 10:28:57;;;;;;;37.53;24.67;;;;;;;6.95;68.30;96970.69;2623807;54;20034;-64
2022/03/31 10:31:40;;;;;;;39.03;25.63;;;;;;;6.98;68.90;96972.09;2624639;54;20030;-62
2022/03/31 10:34:12;;;;;;;43.83;27.63;;;;;;;6.87;68.88;96973.59;2624361;54;20026;-62
2022/03/31 10:36:45;;;;;;;41.63;26.23;;;;;;;6.79;70.00;96958.09;2624300;54;20054;-61
2022/03/31 10:39:20;;;;;;;39.03;25.67;;;;;;;6.84;70.01;96960.88;2620854;47;20041;-63
2022/03/31 10:41:51;;;;;;;41.40;26.30;;;;;;;6.90;70.53;96961.84;2623630;54;20046;-66
2022/03/31 10:44:22;;;;;;;40.35;26.75;;;;;;;6.93;70.60;96961.41;2623387;54;20045;-66
2022/03/31 10:47:06;;;;;;;39.30;26.15;;;;;;;7.07;70.56;96962.13;2623195;54;20070;-64
2022/03/31 10:49:38;;;;;;;36.58;25.50;;;;;;;7.08;70.44;96958.47;2623793;47;20537;-62
2022/03/31 10:52:17;;;;;;;35.80;23.45;;;;;;;6.96;70.96;96958.34;2623425;47;20022;-62
2022/03/31 10:54:47;;;;;;;35.08;22.35;;;;;;;7.07;70.41;96944.53;2624469;54;20041;-63
2022/03/31 10:57:17;;;;;;;31.90;22.50;;;;;;;7.05;69.69;96946.56;2623895;39;20411;-64
2022/03/31 10:59:50;;;;;;;33.42;23.58;;;;;;;7.13;70.38;96942.84;2623317;54;20046;-63
2022/03/31 11:02:23;;;;;;;34.13;23.05;;;;;;;7.21;69.74;96945.19;2623789;54;20035;-63
2022/03/31 11:04:57;;;;;;;34.03;23.83;;;;;;;7.40;70.05;96946.03;2623094;54;20022;-64
2022/03/31 11:07:29;;;;;;;35.30;23.60;;;;;;;7.45;69.21;96944.34;2622650;54;20034;-63
2022/03/31 11:10:02;;;;;;;35.47;24.88;;;;;;;7.62;70.20;96941.97;2622431;47;20549;-64
2022/03/31 11:12:33;;;;;;;34.15;23.35;;;;;;;7.68;69.59;96938.47;2622862;54;20557;-64
2022/03/31 11:15:05;;;;;;;35.00;23.58;;;;;;;7.83;68.76;96940.72;2622908;47;20026;-64
2022/03/31 11:17:39;;;;;;;32.78;23.70;;;;;;;7.97;68.89;96936.09;2623477;54;20033;-64
2022/03/31 11:20:17;;;;;;;36.55;25.02;;;;;;;8.16;68.96;96932.44;2623092;54;20158;-64
2022/03/31 11:22:53;;;;;;;35.67;25.55;;;;;;;8.32;68.50;96925.72;2622659;54;20033;-64
2022/03/31 11:25:25;;;;;;;34.60;26.35;;;;;;;8.59;68.65;96923.53;2623487;39;20430;-64
2022/03/31 11:27:56;;;;;;;37.17;27.10;;;;;;;8.84;68.33;96925.19;2622760;54;20035;-64
2022/03/31 11:30:29;;;;;;;37.70;27.13;;;;;;;9.09;67.76;96920.50;2623494;54;20038;-62
2022/03/31 11:33:02;;;;;;;33.63;25.27;;;;;;;9.28;66.84;96912.50;2622593;54;20038;-64
2022/03/31 11:35:33;;;;;;;30.63;24.55;;;;;;;9.33;66.63;96910.78;2622752;54;20038;-64
2022/03/31 11:38:05;;;;;;;32.10;24.35;;;;;;;9.49;65.58;96904.00;2622537;54;20034;-63
2022/03/31 11:40:37;;;;;;;37.38;29.48;;;;;;;9.48;65.55;96912.94;2622560;39;20105;-64
2022/03/31 11:43:09;;;;;;;32.38;22.30;;;;;;;9.50;65.07;96910.88;2621733;54;20077;-63
2022/03/31 11:45:42;;;;;;;26.27;21.25;;;;;;;9.53;64.64;96896.41;2621054;54;20059;-63
2022/03/31 11:48:17;;;;;;;26.98;21.73;;;;;;;9.68;65.41;96891.47;2621754;54;20034;-62
2022/03/31 11:50:52;;;;;;;27.52;21.83;;;;;;;9.75;64.71;96889.47;2622343;54;20045;-62
2022/03/31 11:53:36;;;;;;;25.50;20.48;;;;;;;9.74;65.01;96897.63;2622154;54;20085;-61
2022/03/31 11:56:09;;;;;;;26.83;21.45;;;;;;;9.73;63.47;96885.47;2621220;54;20023;-60